Wednesday, October 17, 2018, 3:30 AM EDT
Back to Local

KSBY, Salisbury-wicomico Cty Reg

Location: Salisbury, MD, United States Lat: 38.333
Local Time: 3:30 AM EDT ( 7:30 GMT) Lon: -75.5
Time Zone: US/Eastern Elev: 52 ft

Show me the last for .
Show Decoded

2018-10-17 02:54 METAR KSBY 170654Z AUTO 00000KT 10SM OVC035 12/12 A3006 RMK AO2 RAE39 SLP182
                 P0001 T01220122 =
2018-10-17 02:31 METAR KSBY 170631Z AUTO 00000KT 10SM -RA SCT029 OVC038 13/12 A3007 RMK AO2 P0001
                 T01280122 =
2018-10-17 02:16 METAR KSBY 170616Z AUTO 34003KT 10SM -RA BKN028 BKN042 OVC100 12/12 A3009 RMK
                 AO2 P0000 T01220122 =
2018-10-17 01:54 METAR KSBY 170554Z AUTO 00000KT 10SM -RA FEW031 SCT080 OVC100 12/12 A3008 RMK
                 AO2 RAB09 SLP189 P0002 60002 T01220122 10133 20122 57011 =
2018-10-16 23:54 METAR KSBY 170354Z AUTO 00000KT 10SM FEW120 13/12 A3011 RMK AO2 SLP199 T01280117
                 =
2018-10-16 22:54 METAR KSBY 170254Z AUTO 00000KT 10SM FEW037 12/11 A3012 RMK AO2 SLP200 T01220111
                 56006 =
2018-10-16 21:54 METAR KSBY 170154Z 00000KT 10SM CLR 13/11 A3013 RMK AO2 SLP206 T01280111 =
2018-10-16 20:54 METAR KSBY 170054Z 00000KT 10SM CLR 12/10 A3012 RMK AO2 SLP201 T01220100 =
2018-10-16 19:54 METAR KSBY 162354Z 00000KT 10SM FEW048 13/09 A3014 RMK AO2 SLP207 T01330094
                 10167 20122 53002 =
2018-10-16 18:54 METAR KSBY 162254Z 00000KT 10SM OVC050 13/09 A3012 RMK AO2 SLP202 T01330089 =
2018-10-16 17:54 METAR KSBY 162154Z 23004KT 10SM OVC055 14/07 A3013 RMK AO2 SLP205 T01440067 =
2018-10-16 16:54 METAR KSBY 162054Z 29003KT 10SM OVC055 15/06 A3013 RMK AO2 SLP205 T01500056
                 58006 =
2018-10-16 15:54 METAR KSBY 161954Z 31006KT 10SM OVC050 16/04 A3013 RMK AO2 SLP206 T01560039 =
2018-10-16 14:54 METAR KSBY 161854Z 32007KT 10SM BKN055 16/06 A3015 RMK AO2 SLP210 T01610056 =
2018-10-16 13:54 METAR KSBY 161754Z VRB04KT 10SM CLR 16/07 A3015 RMK AO2 SLP211 T01560067 10161
                 20139 58019 =
2018-10-16 12:54 METAR KSBY 161654Z 36003KT 10SM CLR 14/07 A3019 RMK AO2 SLP224 T01440067 =
2018-10-16 11:54 METAR KSBY 161554Z 04005KT 10SM CLR 15/07 A3020 RMK AO2 SLP230 T01500067 =
2018-10-16 10:54 METAR KSBY 161454Z 35007KT 10SM BKN120 15/07 A3020 RMK AO2 SLP230 T01500067
                 50018 =
2018-10-16 09:54 METAR KSBY 161354Z 36008KT 10SM FEW120 14/08 A3021 RMK AO2 SLP231 T01440078 =
2018-10-16 08:54 METAR KSBY 161254Z 34011KT 10SM BKN120 14/07 A3019 RMK AO2 SLP225 T01440067 =
2018-10-16 07:54 METAR KSBY 161154Z 35007KT 10SM SCT070 BKN095 BKN120 15/07 A3015 RMK AO2 SLP212
                 60001 70002 T01500072 10228 20150 53021 =
2018-10-16 06:54 METAR KSBY 161054Z 34011KT 10SM BKN075 16/09 A3013 RMK AO2 SLP204 T01560089 =
2018-10-16 05:54 METAR KSBY 160954Z AUTO 32008KT 10SM FEW043 BKN080 OVC095 17/09 A3011 RMK AO2
                 SLP197 T01670089 =
2018-10-16 04:54 METAR KSBY 160854Z AUTO 34015G20KT 10SM OVC039 17/12 A3009 RMK AO2 SLP191 60001
                 T01720122 53014 =
2018-10-16 03:54 METAR KSBY 160754Z AUTO 32012KT 10SM BKN037 OVC060 18/13 A3007 RMK AO2 SLP184
                 T01830128 =

Support USWX by starting your Amazon purchase here.